Time;durP1;ratioP1;P1;durP2;ratioP2;P2;SDS_P1;SDS_P2;PMS_P1;PMS_P2;Temp;Humidity;BMP_temperature;BMP_pressure;BME280_temperature;BME280_humidity;BME280_pressure;Samples;Min_cycle;Max_cycle;Signal;HPM_P1;HPM_P2
2023/03/08 04:51:09;;;;;;;29.87;14.25;;;;;;;2.03;100.00;99218.94;5399258;28;20140;-86
2023/03/08 04:54:13;;;;;;;27.95;13.75;;;;;;;2.13;100.00;99228.63;5277482;33;34833;-85
2023/03/08 04:57:16;;;;;;;29.23;14.63;;;;;;;2.19;100.00;99223.53;5277412;33;34505;-85
2023/03/08 05:00:23;;;;;;;30.50;15.85;;;;;;;2.17;100.00;99225.53;5277738;33;33733;-85
2023/03/08 05:03:25;;;;;;;30.52;15.60;;;;;;;2.20;100.00;99221.75;5276999;33;33613;-85
2023/03/08 05:06:30;;;;;;;29.48;14.93;;;;;;;2.23;100.00;99216.13;5290097;33;33632;-85
2023/03/08 05:09:34;;;;;;;33.40;16.62;;;;;;;2.29;100.00;99220.81;5277528;33;33768;-89
2023/03/08 05:12:37;;;;;;;31.48;15.93;;;;;;;2.34;100.00;99213.25;5277005;33;34312;-89
2023/03/08 05:15:40;;;;;;;36.45;16.87;;;;;;;2.43;100.00;99217.63;5266585;33;34270;-89
2023/03/08 05:18:44;;;;;;;31.02;15.70;;;;;;;2.44;100.00;99221.94;5280747;33;34081;-86
2023/03/08 05:21:48;;;;;;;28.20;15.00;;;;;;;2.40;100.00;99209.09;5294337;33;33782;-86
2023/03/08 05:24:51;;;;;;;26.62;14.35;;;;;;;2.32;100.00;99214.38;5278260;33;34120;-85
2023/03/08 05:27:55;;;;;;;35.13;15.18;;;;;;;2.46;100.00;99211.16;5293629;33;33876;-86
2023/03/08 05:31:01;;;;;;;31.23;14.65;;;;;;;2.47;100.00;99212.81;5282216;33;35488;-86
2023/03/08 05:34:04;;;;;;;30.35;14.90;;;;;;;2.47;100.00;99220.78;5294715;33;34383;-85
2023/03/08 05:37:08;;;;;;;30.75;14.18;;;;;;;2.49;100.00;99230.28;5277559;33;33994;-85
2023/03/08 05:40:11;;;;;;;25.88;13.73;;;;;;;2.53;100.00;99245.91;5277930;33;34752;-85
2023/03/08 05:43:16;;;;;;;27.25;14.10;;;;;;;2.61;100.00;99251.28;5290634;33;34489;-85
2023/03/08 05:46:21;;;;;;;29.23;14.25;;;;;;;2.84;100.00;99262.25;5293193;33;34973;-85
2023/03/08 05:49:24;;;;;;;32.00;14.95;;;;;;;2.92;100.00;99265.78;5266189;33;34046;-85
2023/03/08 05:52:29;;;;;;;24.37;12.65;;;;;;;3.01;100.00;99260.53;5264636;33;34071;-85
2023/03/08 05:55:36;;;;;;;27.23;13.73;;;;;;;3.23;100.00;99262.66;5271667;33;33550;-85
2023/03/08 05:58:40;;;;;;;25.05;12.98;;;;;;;3.44;100.00;99272.88;5260117;33;33886;-85
2023/03/08 06:01:46;;;;;;;23.50;11.80;;;;;;;3.53;100.00;99274.59;5272699;33;33698;-85
2023/03/08 06:04:50;;;;;;;23.30;12.02;;;;;;;3.73;100.00;99285.81;5250005;33;34758;-84
2023/03/08 06:07:54;;;;;;;24.23;11.00;;;;;;;3.98;100.00;99288.56;5275872;33;34946;-85
2023/03/08 06:10:57;;;;;;;20.42;11.10;;;;;;;4.26;100.00;99291.78;5272925;33;34130;-85
2023/03/08 06:14:01;;;;;;;22.55;10.85;;;;;;;4.60;100.00;99288.16;5261089;33;35424;-85
2023/03/08 06:17:04;;;;;;;18.80;10.32;;;;;;;4.77;100.00;99295.16;5261109;33;34497;-85
2023/03/08 06:20:09;;;;;;;19.90;10.45;;;;;;;4.91;100.00;99293.63;5257058;33;33973;-85
2023/03/08 06:23:13;;;;;;;19.70;11.00;;;;;;;4.99;100.00;99299.81;5262265;33;35463;-85
2023/03/08 06:26:16;;;;;;;19.08;10.32;;;;;;;5.08;100.00;99300.63;5261402;33;34489;-85
2023/03/08 06:29:20;;;;;;;20.25;10.88;;;;;;;5.11;100.00;99305.63;5272079;33;34804;-85
2023/03/08 06:32:23;;;;;;;19.73;9.95;;;;;;;5.32;100.00;99318.41;5257649;33;33809;-85
2023/03/08 06:35:26;;;;;;;19.42;10.15;;;;;;;5.43;100.00;99319.91;5259539;33;34320;-85
2023/03/08 06:38:31;;;;;;;18.65;10.48;;;;;;;5.50;100.00;99331.59;5271546;33;33929;-85
2023/03/08 06:41:35;;;;;;;17.23;9.90;;;;;;;5.63;99.93;99321.19;5259374;33;33651;-85
2023/03/08 06:44:38;;;;;;;21.58;10.93;;;;;;;5.80;94.84;99334.50;5259612;33;33842;-85
2023/03/08 06:47:42;;;;;;;17.25;9.38;;;;;;;6.00;94.99;99335.78;5258791;33;34917;-84
2023/03/08 06:50:45;;;;;;;38.58;10.70;;;;;;;6.16;91.18;99334.84;5246928;33;33935;-85
2023/03/08 06:53:49;;;;;;;23.10;11.35;;;;;;;6.13;93.10;99341.38;5271854;33;34306;-85
2023/03/08 06:56:52;;;;;;;17.80;10.07;;;;;;;6.08;91.04;99343.75;5259039;33;33616;-85
2023/03/08 06:59:55;;;;;;;18.33;10.88;;;;;;;6.03;93.24;99334.59;5259678;33;33951;-85
2023/03/08 07:02:59;;;;;;;17.95;8.98;;;;;;;6.08;94.64;99343.75;5260857;33;35575;-85
2023/03/08 07:06:07;;;;;;;17.60;9.30;;;;;;;5.95;92.04;99338.13;5271090;33;35200;-85
2023/03/08 07:09:10;;;;;;;20.20;9.77;;;;;;;5.94;90.60;99344.47;5283489;33;33628;-88
2023/03/08 07:12:13;;;;;;;20.05;9.48;;;;;;;5.93;91.20;99350.81;5278908;33;35251;-88
2023/03/08 07:15:22;;;;;;;19.73;10.57;;;;;;;5.97;90.12;99361.97;5260786;33;34098;-89
2023/03/08 07:18:25;;;;;;;18.65;9.70;;;;;;;5.95;88.49;99364.84;5263639;33;34360;-85
2023/03/08 07:21:28;;;;;;;22.08;10.32;;;;;;;6.07;88.10;99379.47;5268240;33;33803;-85
2023/03/08 07:24:31;;;;;;;19.87;10.13;;;;;;;6.10;89.32;99378.31;5260962;33;33716;-85
2023/03/08 07:27:34;;;;;;;19.08;9.75;;;;;;;6.11;90.55;99385.31;5261747;33;35126;-85
2023/03/08 07:30:37;;;;;;;20.65;9.95;;;;;;;6.12;89.55;99379.78;5267331;33;33848;-85
2023/03/08 07:33:41;;;;;;;17.17;9.75;;;;;;;6.16;86.82;99390.97;5260657;33;34906;-85
2023/03/08 07:36:44;;;;;;;18.02;9.82;;;;;;;6.45;85.75;99394.84;5258755;33;34183;-85
2023/03/08 07:39:47;;;;;;;20.05;10.05;;;;;;;6.61;86.24;99389.41;5249210;33;34183;-85
2023/03/08 07:42:50;;;;;;;20.25;10.30;;;;;;;6.83;83.70;99398.44;5260572;33;33992;-85
2023/03/08 07:46:01;;;;;;;18.33;9.88;;;;;;;6.90;81.00;99402.06;5259842;33;34975;-84
2023/03/08 07:49:09;;;;;;;20.50;10.00;;;;;;;7.08;81.26;99393.75;5276481;33;34469;-85
2023/03/08 07:52:12;;;;;;;20.17;9.50;;;;;;;7.19;79.07;99398.66;5260267;33;33870;-85
2023/03/08 07:55:16;;;;;;;20.83;9.68;;;;;;;7.26;78.99;99396.12;5284230;33;34293;-85
2023/03/08 07:58:20;;;;;;;19.30;10.15;;;;;;;7.50;79.86;99403.09;5277217;33;33778;-84
2023/03/08 08:01:23;;;;;;;17.52;9.70;;;;;;;7.57;78.07;99403.19;5274387;33;34760;-84
2023/03/08 08:04:26;;;;;;;16.92;9.48;;;;;;;7.61;75.79;99412.53;5254608;33;33584;-85
2023/03/08 08:07:30;;;;;;;21.90;10.55;;;;;;;7.77;75.50;99414.22;5254244;33;33868;-85
2023/03/08 08:10:33;;;;;;;21.25;9.52;;;;;;;7.87;75.62;99420.16;5273928;33;34844;-84
2023/03/08 08:13:36;;;;;;;17.55;9.15;;;;;;;7.84;74.08;99424.03;5261449;33;34983;-85
2023/03/08 08:16:39;;;;;;;16.75;9.32;;;;;;;7.65;72.61;99425.38;5253760;33;33605;-85
2023/03/08 08:19:42;;;;;;;12.48;7.60;;;;;;;7.77;72.50;99424.94;5258953;33;34093;-85
2023/03/08 08:22:44;;;;;;;16.15;8.75;;;;;;;7.82;68.93;99425.22;5277432;33;34507;-85
2023/03/08 08:25:49;;;;;;;13.55;8.45;;;;;;;7.99;68.90;99424.03;5271104;33;34302;-85
2023/03/08 08:28:53;;;;;;;14.02;8.35;;;;;;;8.09;67.80;99424.56;5275273;33;35346;-85
2023/03/08 08:31:56;;;;;;;13.52;8.02;;;;;;;8.18;67.01;99433.34;5264281;33;33975;-85
2023/03/08 08:34:59;;;;;;;15.25;8.23;;;;;;;8.38;66.66;99429.13;5251390;33;34852;-85
2023/03/08 08:38:02;;;;;;;17.90;8.55;;;;;;;8.51;64.10;99427.59;5253478;33;34401;-85
2023/03/08 08:41:06;;;;;;;15.20;7.93;;;;;;;8.76;63.99;99420.91;5248749;33;34005;-85
2023/03/08 08:44:09;;;;;;;16.25;8.35;;;;;;;9.06;62.08;99426.97;5278446;33;33871;-85
2023/03/08 08:47:12;;;;;;;14.38;8.38;;;;;;;9.16;61.36;99417.81;5256899;33;35082;-85
2023/03/08 08:50:15;;;;;;;13.45;7.60;;;;;;;9.05;60.72;99428.00;5259514;33;32614;-85
2023/03/08 08:53:19;;;;;;;13.25;7.70;;;;;;;8.98;61.33;99424.44;5272919;33;34560;-85
2023/03/08 08:56:24;;;;;;;19.25;8.75;;;;;;;9.01;60.67;99424.06;5271907;33;33647;-85
2023/03/08 08:59:30;;;;;;;16.80;8.35;;;;;;;9.06;61.99;99424.28;5250059;33;33918;-85
2023/03/08 09:02:32;;;;;;;15.10;7.70;;;;;;;9.14;60.87;99420.66;5248374;33;34521;-85
2023/03/08 09:05:42;;;;;;;14.40;7.25;;;;;;;9.41;60.27;99396.72;5264623;33;35363;-85
2023/03/08 09:08:48;;;;;;;10.77;6.65;;;;;;;9.79;59.24;99407.13;5295520;33;33699;-88
2023/03/08 09:11:51;;;;;;;11.68;7.18;;;;;;;9.64;57.67;99405.38;5296922;33;35439;-88
2023/03/08 09:14:57;;;;;;;17.27;7.72;;;;;;;9.57;57.33;99407.19;5253707;33;33936;-85
2023/03/08 09:18:01;;;;;;;13.90;7.70;;;;;;;9.69;56.74;99402.94;5272498;33;33931;-85
2023/03/08 09:21:04;;;;;;;12.75;6.95;;;;;;;9.77;55.86;99396.59;5272346;33;34526;-85
2023/03/08 09:24:09;;;;;;;12.85;7.28;;;;;;;10.10;54.38;99393.25;5249215;33;35405;-85
2023/03/08 09:27:12;;;;;;;12.90;7.05;;;;;;;10.47;54.32;99386.63;5289423;33;35350;-86
2023/03/08 09:30:16;;;;;;;12.82;7.32;;;;;;;11.11;54.82;99386.16;5278794;33;35395;-86
2023/03/08 09:33:19;;;;;;;12.15;7.37;;;;;;;11.03;50.00;99385.53;5278000;33;35432;-85
2023/03/08 09:36:22;;;;;;;12.95;7.55;;;;;;;11.19;49.43;99371.66;5250151;33;33771;-85
2023/03/08 09:39:26;;;;;;;11.23;7.05;;;;;;;11.50;48.08;99384.50;5274134;33;34857;-86
2023/03/08 09:42:32;;;;;;;14.18;7.53;;;;;;;11.64;46.76;99390.72;5275211;33;34067;-85
2023/03/08 09:45:35;;;;;;;13.93;7.62;;;;;;;11.83;46.62;99380.12;5278665;33;34048;-84
2023/03/08 09:48:43;;;;;;;11.55;6.75;;;;;;;11.77;45.68;99390.69;5273343;33;34559;-85
2023/03/08 09:51:51;;;;;;;11.60;7.53;;;;;;;11.71;45.66;99388.84;5288343;33;33869;-85
2023/03/08 09:54:57;;;;;;;10.33;7.10;;;;;;;11.58;47.10;99381.59;5274100;33;33756;-86
2023/03/08 09:58:13;;;;;;;10.82;6.57;;;;;;;11.38;46.21;99382.63;5275401;33;33651;-85
2023/03/08 10:01:32;;;;;;;12.73;7.28;;;;;;;11.76;45.85;99391.75;5288104;33;34125;-85
2023/03/08 10:04:47;;;;;;;;;;;;;;;11.86;44.96;99383.25;5288872;33;34360;-84
2023/03/08 10:08:11;;;;;;;9.00;6.10;;;;;;;12.23;44.04;99375.47;5268532;33;35467;-85
2023/03/08 10:11:22;;;;;;;14.55;7.10;;;;;;;12.36;43.53;99366.50;5285784;33;34097;-85
2023/03/08 10:14:31;;;;;;;14.45;7.18;;;;;;;12.30;44.23;99365.47;5275462;33;34635;-87
2023/03/08 10:17:45;;;;;;;11.90;6.15;;;;;;;12.45;44.08;99368.72;5273326;33;34114;-86
2023/03/08 10:20:48;;;;;;;13.95;6.53;;;;;;;12.59;42.08;99374.06;5274045;33;33725;-85
2023/03/08 10:24:06;;;;;;;9.50;6.00;;;;;;;12.30;43.52;99365.47;5278339;33;34859;-85
2023/03/08 10:27:22;;;;;;;11.23;6.15;;;;;;;12.44;42.91;99367.06;5274403;33;35149;-85
2023/03/08 10:30:31;;;;;;;8.68;6.10;;;;;;;12.14;42.67;99369.50;5273225;33;35781;-85
2023/03/08 10:33:35;;;;;;;17.37;9.55;;;;;;;11.97;44.01;99371.81;5273811;33;34151;-85
2023/03/08 10:37:00;;;;;;;16.42;9.95;;;;;;;11.76;47.48;99361.25;5273257;33;35438;-85
2023/03/08 10:40:08;;;;;;;15.57;10.13;;;;;;;11.88;49.48;99362.31;5273504;33;34544;-85
2023/03/08 10:43:39;;;;;;;21.37;11.10;;;;;;;12.20;48.33;99365.12;5273242;33;34874;-85
2023/03/08 10:46:47;;;;;;;18.77;9.57;;;;;;;11.98;49.15;99373.47;5273465;33;34049;-85
2023/03/08 10:50:16;;;;;;;18.57;9.87;;;;;;;12.46;49.63;99367.69;5276086;33;34006;-84
2023/03/08 10:53:19;;;;;;;16.67;9.52;;;;;;;13.02;49.05;99368.00;5256186;33;35095;-90
2023/03/08 10:56:37;;;;;;;17.95;9.60;;;;;;;13.25;47.39;99360.16;5255869;33;34439;-89
2023/03/08 10:59:48;;;;;;;14.93;8.93;;;;;;;13.36;45.81;99353.19;5276328;33;34810;-85
2023/03/08 11:03:02;;;;;;;14.98;9.43;;;;;;;13.52;46.27;99346.41;5271381;33;33761;-85
2023/03/08 11:06:13;;;;;;;16.25;9.68;;;;;;;12.84;45.57;99339.00;5273477;33;34379;-84
2023/03/08 11:09:32;;;;;;;20.92;10.55;;;;;;;12.33;47.66;99343.44;5281813;33;34116;-85
2023/03/08 11:12:35;;;;;;;15.67;9.60;;;;;;;12.85;46.38;99335.28;5270960;33;33669;-85
2023/03/08 11:15:41;;;;;;;14.87;9.13;;;;;;;12.81;46.34;99331.34;5256772;33;34099;-85
2023/03/08 11:19:16;;;;;;;15.00;8.82;;;;;;;12.44;46.53;99328.47;5272094;33;34610;-85
2023/03/08 11:22:36;;;;;;;17.62;8.63;;;;;;;12.52;47.01;99320.13;5273341;33;34553;-85
2023/03/08 11:25:44;;;;;;;;;;;;;;;13.02;46.37;99319.38;5287549;33;33691;-85
2023/03/08 11:29:05;;;;;;;15.20;8.32;;;;;;;13.38;45.71;99316.78;5265490;33;34237;-85
2023/03/08 11:32:35;;;;;;;15.73;8.23;;;;;;;13.75;43.47;99314.13;5272082;33;35005;-86
2023/03/08 11:35:57;;;;;;;14.77;8.50;;;;;;;13.77;42.40;99317.44;5270935;33;34867;-85
2023/03/08 11:39:30;;;;;;;13.52;8.00;;;;;;;13.95;41.86;99324.75;5269089;33;34511;-85
2023/03/08 11:42:48;;;;;;;14.75;8.57;;;;;;;13.42;41.32;99313.63;5266238;33;34129;-85
2023/03/08 11:46:06;;;;;;;14.18;8.57;;;;;;;13.09;43.92;99310.16;5277807;33;34667;-85
2023/03/08 11:49:13;;;;;;;15.13;8.35;;;;;;;12.44;43.69;99309.56;5274721;33;32788;-85
2023/03/08 11:52:32;;;;;;;13.23;8.13;;;;;;;12.01;44.26;99302.91;5273512;33;33761;-85
2023/03/08 11:56:14;;;;;;;13.50;7.80;;;;;;;12.04;44.48;99309.75;5274893;33;34303;-85
2023/03/08 11:59:38;;;;;;;14.18;7.82;;;;;;;11.66;45.64;99304.22;5229251;33;34156;-86
2023/03/08 12:02:46;;;;;;;14.68;8.15;;;;;;;11.42;45.78;99308.44;5275839;33;33788;-85
2023/03/08 12:05:58;;;;;;;13.40;7.40;;;;;;;11.14;46.96;99306.78;5276980;33;34844;-84
2023/03/08 12:09:30;;;;;;;14.68;7.53;;;;;;;11.13;48.08;99295.19;5274159;33;34156;-85
2023/03/08 12:12:41;;;;;;;14.40;8.05;;;;;;;11.24;46.82;99288.34;5271907;33;34545;-84
2023/03/08 12:16:19;;;;;;;14.50;7.47;;;;;;;11.17;46.72;99278.59;5255682;33;33939;-85
2023/03/08 12:19:29;;;;;;;14.70;7.40;;;;;;;11.16;48.57;99282.34;5245289;33;32866;-85
2023/03/08 12:22:42;;;;;;;8.27;5.65;;;;;;;10.96;46.93;99283.16;5274342;33;34947;-84
2023/03/08 12:25:51;;;;;;;9.52;6.15;;;;;;;10.87;47.01;99284.41;5276594;33;35451;-85
2023/03/08 12:29:04;;;;;;;12.40;6.62;;;;;;;10.88;45.81;99276.16;5278079;33;34199;-85
2023/03/08 12:32:13;;;;;;;11.45;6.22;;;;;;;10.88;45.45;99280.69;5266375;33;34457;-85
2023/03/08 12:35:32;;;;;;;13.20;6.95;;;;;;;10.95;45.58;99281.53;5255226;33;33995;-85
2023/03/08 12:38:38;;;;;;;12.85;5.68;;;;;;;11.11;46.63;99273.03;5272413;33;35011;-85
2023/03/08 12:41:41;;;;;;;12.00;7.05;;;;;;;11.28;46.12;99259.13;5268793;33;34156;-85
2023/03/08 12:44:45;;;;;;;12.90;7.30;;;;;;;11.07;47.04;99255.63;5260785;33;34087;-85
2023/03/08 12:48:03;;;;;;;12.00;7.07;;;;;;;11.20;46.80;99252.06;5258756;33;34775;-85
2023/03/08 12:51:33;;;;;;;15.93;7.65;;;;;;;11.11;47.26;99231.78;5289806;33;33771;-85
2023/03/08 12:54:37;;;;;;;15.05;7.95;;;;;;;11.20;47.23;99235.06;5278275;33;35472;-85
2023/03/08 12:57:53;;;;;;;12.40;7.68;;;;;;;11.18;48.38;99224.53;5282568;33;35406;-85
2023/03/08 13:01:03;;;;;;;15.80;7.43;;;;;;;11.21;48.29;99216.03;5278526;33;32930;-85
2023/03/08 13:04:28;;;;;;;13.73;7.35;;;;;;;11.24;48.21;99212.09;5276074;33;33965;-85
2023/03/08 13:08:11;;;;;;;14.68;7.15;;;;;;;12.91;45.73;99188.53;5268858;33;33718;-85
2023/03/08 13:11:16;;;;;;;13.75;7.35;;;;;;;14.32;40.68;99175.78;5261537;33;34045;-85
2023/03/08 13:14:38;;;;;;;12.65;7.60;;;;;;;15.08;38.19;99174.12;5272714;33;34934;-86
2023/03/08 13:18:18;;;;;;;14.48;7.47;;;;;;;14.40;38.24;99159.22;5273123;33;34679;-85
2023/03/08 13:21:40;;;;;;;13.68;6.75;;;;;;;13.60;40.03;99145.97;5266610;33;33759;-85
2023/03/08 13:24:53;;;;;;;10.40;6.97;;;;;;;12.75;41.10;99141.28;5275188;33;34074;-85
2023/03/08 13:28:09;;;;;;;11.55;5.97;;;;;;;13.30;41.03;99133.25;5260334;33;33935;-85
2023/03/08 13:31:18;;;;;;;13.90;6.40;;;;;;;14.18;38.35;99131.84;5272806;33;34054;-85
2023/03/08 13:34:33;;;;;;;11.25;6.15;;;;;;;14.18;38.10;99122.91;5273187;33;34083;-85
2023/03/08 13:37:36;;;;;;;11.12;5.65;;;;;;;13.94;39.05;99124.72;5272544;33;34074;-85
2023/03/08 13:40:50;;;;;;;9.50;5.53;;;;;;;13.46;37.95;99110.19;5268529;33;34205;-85
2023/03/08 13:44:00;;;;;;;9.90;5.37;;;;;;;12.78;38.92;99097.66;5265372;33;34375;-89
2023/03/08 13:47:24;;;;;;;9.25;5.75;;;;;;;12.83;40.07;99087.00;5274096;33;33996;-86
2023/03/08 13:50:41;;;;;;;11.52;5.95;;;;;;;12.71;40.80;99073.41;5268889;33;34175;-85
2023/03/08 13:53:45;;;;;;;10.10;5.40;;;;;;;12.64;42.73;99083.47;5277460;33;34138;-85
2023/03/08 13:56:52;;;;;;;8.15;5.25;;;;;;;12.41;43.14;99075.16;5288383;33;34733;-85
2023/03/08 13:59:58;;;;;;;13.30;6.12;;;;;;;12.42;43.18;99077.63;5264230;33;33826;-85
2023/03/08 14:03:06;;;;;;;7.60;4.85;;;;;;;12.48;42.93;99068.66;5259567;33;34502;-85
2023/03/08 14:06:17;;;;;;;11.03;5.43;;;;;;;12.24;43.18;99066.81;5257998;33;35424;-85
2023/03/08 14:09:21;;;;;;;11.20;5.20;;;;;;;12.15;44.64;99060.84;5274018;33;33658;-85
2023/03/08 14:12:30;;;;;;;12.90;5.45;;;;;;;12.26;45.11;99072.81;5274608;33;33858;-85
2023/03/08 14:15:37;;;;;;;9.27;5.23;;;;;;;12.35;45.58;99079.56;5273105;33;33958;-85
2023/03/08 14:18:42;;;;;;;8.27;4.90;;;;;;;12.08;47.50;99078.97;5273116;33;34205;-85
2023/03/08 14:21:58;;;;;;;9.93;5.37;;;;;;;12.01;47.62;99070.91;5263592;33;33571;-85
2023/03/08 14:25:03;;;;;;;9.43;5.07;;;;;;;12.50;47.39;99068.44;5282962;33;34317;-85
2023/03/08 14:28:40;;;;;;;8.38;5.22;;;;;;;12.85;47.04;99066.00;5254114;33;34419;-85
2023/03/08 14:32:22;;;;;;;11.30;5.47;;;;;;;12.65;48.42;99066.19;5274958;33;33627;-85
2023/03/08 14:35:34;;;;;;;13.13;5.25;;;;;;;12.70;48.34;99070.94;5271048;33;34164;-85
2023/03/08 14:38:37;;;;;;;8.80;5.50;;;;;;;12.67;48.58;99069.50;5276372;33;35014;-85
2023/03/08 14:41:40;;;;;;;10.23;4.95;;;;;;;12.50;50.15;99078.41;5265296;33;35637;-85
2023/03/08 14:44:54;;;;;;;11.52;5.30;;;;;;;12.61;50.25;99072.28;5260006;33;32598;-86
2023/03/08 14:48:20;;;;;;;9.57;4.78;;;;;;;12.13;52.40;99073.72;5287275;33;35566;-87
2023/03/08 14:51:28;;;;;;;7.60;4.50;;;;;;;11.82;53.59;99079.97;5261676;33;34856;-85
2023/03/08 14:54:33;;;;;;;9.25;4.93;;;;;;;11.69;54.14;99080.03;5275749;33;33842;-86
2023/03/08 14:57:36;;;;;;;12.27;5.30;;;;;;;11.37;55.96;99090.78;5282053;33;34110;-85
2023/03/08 15:00:50;;;;;;;9.77;5.45;;;;;;;11.24;57.26;99075.50;5260727;33;175070;-86
2023/03/08 15:03:54;;;;;;;8.48;4.60;;;;;;;11.33;57.30;99065.31;5290942;33;34134;-86
2023/03/08 15:06:57;;;;;;;8.73;5.03;;;;;;;11.37;58.33;99046.84;5290135;33;34076;-85
2023/03/08 15:10:02;;;;;;;9.45;5.15;;;;;;;11.20;59.37;99054.59;5265879;33;33897;-85
2023/03/08 15:13:13;;;;;;;10.95;4.85;;;;;;;11.43;59.27;99049.50;5291013;33;33923;-85
2023/03/08 15:16:16;;;;;;;9.13;5.05;;;;;;;11.46;59.16;99035.59;5290261;33;34113;-85
2023/03/08 15:19:20;;;;;;;12.35;5.45;;;;;;;11.41;59.95;99023.81;5265588;33;34883;-89
2023/03/08 15:22:23;;;;;;;14.87;5.55;;;;;;;11.28;60.58;99027.41;5261497;33;33955;-90
2023/03/08 15:25:36;;;;;;;11.38;5.20;;;;;;;11.19;60.67;99024.13;5263577;33;33990;-90
2023/03/08 15:28:39;;;;;;;10.23;4.97;;;;;;;11.09;62.08;99019.22;5286392;33;33640;-86
2023/03/08 15:31:42;;;;;;;9.90;5.18;;;;;;;10.93;63.63;99016.19;5267329;33;33950;-86
2023/03/08 15:34:45;;;;;;;11.68;6.05;;;;;;;10.99;63.81;99009.94;5264842;33;34278;-85
2023/03/08 15:37:49;;;;;;;10.00;5.82;;;;;;;10.92;64.51;99012.66;5250505;33;34853;-86
2023/03/08 15:40:52;;;;;;;9.65;5.15;;;;;;;10.94;64.72;99004.34;5276597;33;35831;-86
2023/03/08 15:43:54;;;;;;;8.63;4.95;;;;;;;10.84;67.02;99007.50;5279588;33;35332;-86
2023/03/08 15:46:58;;;;;;;5.85;4.43;;;;;;;10.81;68.14;98997.19;5288319;33;34027;-86
2023/03/08 15:50:10;;;;;;;9.75;5.32;;;;;;;10.85;68.79;98988.47;5269473;33;34601;-86
2023/03/08 15:53:13;;;;;;;13.20;5.05;;;;;;;10.86;68.65;98982.03;5290869;33;33383;-85
2023/03/08 15:56:27;;;;;;;9.15;5.00;;;;;;;10.84;70.32;98978.72;5257681;33;33739;-86
2023/03/08 15:59:30;;;;;;;9.55;5.10;;;;;;;10.89;71.42;98961.94;5249308;33;34010;-86
2023/03/08 16:02:33;;;;;;;8.93;5.45;;;;;;;10.83;71.39;98965.50;5260816;33;34131;-86
2023/03/08 16:05:36;;;;;;;9.15;5.47;;;;;;;10.81;72.24;98965.69;5272974;33;33919;-86
2023/03/08 16:08:41;;;;;;;9.15;5.40;;;;;;;10.75;72.94;98963.03;5261168;33;33491;-86
2023/03/08 16:11:44;;;;;;;11.63;5.90;;;;;;;10.78;73.86;98962.59;5273897;33;33947;-85
2023/03/08 16:14:49;;;;;;;10.30;5.75;;;;;;;10.81;73.96;98960.31;5249671;33;33661;-85
2023/03/08 16:17:53;;;;;;;10.98;5.70;;;;;;;10.72;75.35;98953.50;5250081;33;34039;-85
2023/03/08 16:20:57;;;;;;;9.98;6.53;;;;;;;10.63;76.69;98958.31;5255819;33;34293;-86
2023/03/08 16:24:01;;;;;;;11.52;7.18;;;;;;;10.63;77.97;98958.31;5256153;33;33941;-85
2023/03/08 16:27:04;;;;;;;10.88;6.60;;;;;;;10.64;78.49;98946.50;5256671;33;33852;-85
2023/03/08 16:30:10;;;;;;;16.73;6.82;;;;;;;10.61;80.11;98956.87;5261488;33;34419;-86
2023/03/08 16:33:13;;;;;;;13.68;6.80;;;;;;;10.66;80.49;98949.81;5271196;33;34994;-86
2023/03/08 16:36:17;;;;;;;9.70;5.85;;;;;;;10.66;80.99;98954.38;5260176;33;35142;-85
2023/03/08 16:39:22;;;;;;;11.15;6.40;;;;;;;10.69;81.44;98943.19;5254305;33;34056;-85
2023/03/08 16:42:25;;;;;;;12.18;6.32;;;;;;;10.67;81.66;98943.38;5243134;33;33946;-86
2023/03/08 16:45:28;;;;;;;12.77;6.10;;;;;;;10.54;83.26;98940.75;5255275;33;33950;-85
2023/03/08 16:48:32;;;;;;;11.73;6.00;;;;;;;10.55;83.60;98944.28;5259440;33;35034;-85
2023/03/08 16:51:34;;;;;;;9.98;6.03;;;;;;;10.55;84.36;98937.00;5259269;33;36358;-85
2023/03/08 16:54:40;;;;;;;12.43;6.32;;;;;;;10.50;84.72;98941.37;5232074;33;34683;-86
